Kindersley Airport
CYKY : rendu visible

Aérodrome :











RETROUVEZ-NOUS SUR...

 
LOGIN :

S'inscrire | Disclaimer

   EN    FR    IT 

 









Légende :    VFR   VFR Marginal   IFR   IFR Intensif   IFR Très Intensif
Visi : 
Plafond : 
>= 8 km
>= 3000ft
5 à 8 km
1000 à 3000 ft
1500m à 5 km
500 à 1000 ft
800 à 1500m
200 à 500 ft
< 800m
< 200 ft
Symboles :   Orages  Brouillard  Fortes neiges  Fortes précipitations  Vent > 20 kt







- Altitude de l'aérodrome : 2277 ft
- Code IATA : YKY


CYKY - Kindersley

DERNIER METAR :
  • 210200Z 31012KT 15SM FEW062 FEW140 BKN170 BKN260 15/08 A2985 RMK SC1AC1AC4CI1 CI TR SLP121 DENSITY ALT 2900FT

METARs EXPIRÉS :
  • 210100Z 29009KT 15SM FEW090 SCT120 BKN170 BKN260 16/08 A2984 RMK AC1AC3AC2CI1 CI TR SLP115 DENSITY ALT 3000FT
  • 210000Z 30013KT 15SM FEW045TCU FEW050 FEW090 SCT240 18/07 A2983 RMK TCU1CU1AC1CI2 TCU TR SE SLP109 DENSITY ALT 3300FT

TAF N/A
Pas de NOTAMs connus pour ce terrain.



MET'MAP, la Météo Aéronautique d'un coup d'oeil ! - Copyright ORBIFLY Décembre 2007 - Disclaimer

ORBIFLY MET'MAP TEAM :

Programmation & Développement : Alexandra Zaïnal
Conception & Développement : Baudouin d'Aumeries
Co-Programmation & Développement : Marc-Olivier Méhu
Soutien technique & logistique : Manuel Goepfert

Contact : metmap@orbifly.com




SOURCES & CREDITS :

   NOAA       Earth
Advisory